Station: EHBK - 20/10/2019 06:55Z (il y a 29 minutes)
EHBK 200655Z AUTO VRB02KT 9999 BKN043 11/11 Q1007 NOSIG
Vent de direction variable: 2 kt
Visibilité > 10 km
Ciel 75% couvert à 4300 pieds
Température: +11ºC - Point de rosée: +11ºC - QNH: 1007 hPa
Pas de changement significatif prévu dans les 2 heures qui suivent l'observation